sensor_id;sensor_type;location;lat;lon;timestamp;temperature;humidity
2409;DHT22;8463;48.094;7.970;2024-01-30T00:01:45;4.70;1.00
2409;DHT22;8463;48.094;7.970;2024-01-30T00:04:11;4.70;1.00
2409;DHT22;8463;48.094;7.970;2024-01-30T00:06:36;4.70;1.00
2409;DHT22;8463;48.094;7.970;2024-01-30T00:09:02;4.60;1.00
2409;DHT22;8463;48.094;7.970;2024-01-30T00:11:27;4.60;1.00
2409;DHT22;8463;48.094;7.970;2024-01-30T00:13:54;4.70;1.00
2409;DHT22;8463;48.094;7.970;2024-01-30T00:16:24;4.70;1.00
2409;DHT22;8463;48.094;7.970;2024-01-30T00:18:51;4.60;1.00
2409;DHT22;8463;48.094;7.970;2024-01-30T00:21:18;4.60;1.00
2409;DHT22;8463;48.094;7.970;2024-01-30T00:23:43;4.60;1.00
2409;DHT22;8463;48.094;7.970;2024-01-30T00:26:09;4.50;1.00
2409;DHT22;8463;48.094;7.970;2024-01-30T00:28:35;4.50;1.00
2409;DHT22;8463;48.094;7.970;2024-01-30T00:31:01;4.50;1.00
2409;DHT22;8463;48.094;7.970;2024-01-30T00:33:26;4.60;1.00
2409;DHT22;8463;48.094;7.970;2024-01-30T00:35:54;4.50;1.00
2409;DHT22;8463;48.094;7.970;2024-01-30T00:38:20;4.50;1.00
2409;DHT22;8463;48.094;7.970;2024-01-30T00:40:45;4.50;1.00
2409;DHT22;8463;48.094;7.970;2024-01-30T00:43:11;4.40;1.00
2409;DHT22;8463;48.094;7.970;2024-01-30T00:45:37;4.40;1.00
2409;DHT22;8463;48.094;7.970;2024-01-30T00:48:03;4.40;1.00
2409;DHT22;8463;48.094;7.970;2024-01-30T00:50:28;4.50;1.00
2409;DHT22;8463;48.094;7.970;2024-01-30T00:52:54;4.50;1.00
2409;DHT22;8463;48.094;7.970;2024-01-30T00:55:19;4.50;1.00
2409;DHT22;8463;48.094;7.970;2024-01-30T00:57:45;4.50;1.00
2409;DHT22;8463;48.094;7.970;2024-01-30T01:00:15;4.40;1.00
2409;DHT22;8463;48.094;7.970;2024-01-30T01:02:46;4.50;1.00
2409;DHT22;8463;48.094;7.970;2024-01-30T01:05:11;4.50;1.00
2409;DHT22;8463;48.094;7.970;2024-01-30T01:07:37;4.50;1.00
2409;DHT22;8463;48.094;7.970;2024-01-30T01:10:03;4.50;1.00
2409;DHT22;8463;48.094;7.970;2024-01-30T01:12:29;4.40;1.00
2409;DHT22;8463;48.094;7.970;2024-01-30T01:14:55;4.40;1.00
2409;DHT22;8463;48.094;7.970;2024-01-30T01:17:20;4.40;1.00
2409;DHT22;8463;48.094;7.970;2024-01-30T01:19:48;4.30;1.00
2409;DHT22;8463;48.094;7.970;2024-01-30T01:22:14;4.30;1.00
2409;DHT22;8463;48.094;7.970;2024-01-30T01:24:39;4.40;1.00
2409;DHT22;8463;48.094;7.970;2024-01-30T01:27:05;4.40;1.00
2409;DHT22;8463;48.094;7.970;2024-01-30T01:29:33;4.40;1.00
2409;DHT22;8463;48.094;7.970;2024-01-30T01:31:59;4.50;1.00
2409;DHT22;8463;48.094;7.970;2024-01-30T01:34:27;4.50;1.00
2409;DHT22;8463;48.094;7.970;2024-01-30T01:36:53;4.50;1.00
2409;DHT22;8463;48.094;7.970;2024-01-30T01:39:21;4.40;1.00
2409;DHT22;8463;48.094;7.970;2024-01-30T01:41:48;4.50;1.00
2409;DHT22;8463;48.094;7.970;2024-01-30T01:44:13;4.50;1.00
2409;DHT22;8463;48.094;7.970;2024-01-30T01:46:39;4.40;1.00
2409;DHT22;8463;48.094;7.970;2024-01-30T01:49:05;4.40;1.00
2409;DHT22;8463;48.094;7.970;2024-01-30T01:51:35;4.40;1.00
2409;DHT22;8463;48.094;7.970;2024-01-30T01:54:04;4.40;1.00
2409;DHT22;8463;48.094;7.970;2024-01-30T01:56:31;4.30;1.00
2409;DHT22;8463;48.094;7.970;2024-01-30T01:59:00;4.30;1.00
2409;DHT22;8463;48.094;7.970;2024-01-30T02:01:29;4.30;1.00
2409;DHT22;8463;48.094;7.970;2024-01-30T02:03:56;4.40;1.00
2409;DHT22;8463;48.094;7.970;2024-01-30T02:06:21;4.40;1.00
2409;DHT22;8463;48.094;7.970;2024-01-30T02:08:48;4.40;1.00
2409;DHT22;8463;48.094;7.970;2024-01-30T02:11:13;4.30;1.00
2409;DHT22;8463;48.094;7.970;2024-01-30T02:13:41;4.30;1.00
2409;DHT22;8463;48.094;7.970;2024-01-30T02:16:06;4.20;1.00
2409;DHT22;8463;48.094;7.970;2024-01-30T02:18:32;4.20;1.00
2409;DHT22;8463;48.094;7.970;2024-01-30T02:20:58;4.20;1.00
2409;DHT22;8463;48.094;7.970;2024-01-30T02:23:27;4.30;1.00
2409;DHT22;8463;48.094;7.970;2024-01-30T02:25:53;4.30;1.00
2409;DHT22;8463;48.094;7.970;2024-01-30T02:28:20;4.20;1.00
2409;DHT22;8463;48.094;7.970;2024-01-30T02:30:46;4.20;1.00
2409;DHT22;8463;48.094;7.970;2024-01-30T02:33:13;4.20;1.00
2409;DHT22;8463;48.094;7.970;2024-01-30T02:35:39;4.20;1.00
2409;DHT22;8463;48.094;7.970;2024-01-30T02:38:05;4.20;1.00
2409;DHT22;8463;48.094;7.970;2024-01-30T02:40:31;4.20;1.00
2409;DHT22;8463;48.094;7.970;2024-01-30T02:42:58;4.20;1.00
2409;DHT22;8463;48.094;7.970;2024-01-30T02:45:24;4.30;1.00
2409;DHT22;8463;48.094;7.970;2024-01-30T02:47:50;4.20;1.00
2409;DHT22;8463;48.094;7.970;2024-01-30T02:50:15;4.10;1.00
2409;DHT22;8463;48.094;7.970;2024-01-30T02:52:42;4.10;1.00
2409;DHT22;8463;48.094;7.970;2024-01-30T02:55:09;4.20;1.00
2409;DHT22;8463;48.094;7.970;2024-01-30T02:57:35;4.20;1.00
2409;DHT22;8463;48.094;7.970;2024-01-30T03:00:01;4.20;1.00
2409;DHT22;8463;48.094;7.970;2024-01-30T03:02:26;4.30;1.00
2409;DHT22;8463;48.094;7.970;2024-01-30T03:04:52;4.30;1.00
2409;DHT22;8463;48.094;7.970;2024-01-30T03:07:17;4.20;1.00
2409;DHT22;8463;48.094;7.970;2024-01-30T03:09:44;4.30;1.00
2409;DHT22;8463;48.094;7.970;2024-01-30T03:12:09;4.20;1.00
2409;DHT22;8463;48.094;7.970;2024-01-30T03:14:35;4.20;1.00
2409;DHT22;8463;48.094;7.970;2024-01-30T03:17:01;4.10;1.00
2409;DHT22;8463;48.094;7.970;2024-01-30T03:19:27;4.10;1.00
2409;DHT22;8463;48.094;7.970;2024-01-30T03:21:55;4.10;1.00
2409;DHT22;8463;48.094;7.970;2024-01-30T03:24:20;4.00;1.00
2409;DHT22;8463;48.094;7.970;2024-01-30T03:26:46;4.00;1.00
2409;DHT22;8463;48.094;7.970;2024-01-30T03:29:12;4.00;1.00
2409;DHT22;8463;48.094;7.970;2024-01-30T03:31:39;4.00;1.00
2409;DHT22;8463;48.094;7.970;2024-01-30T03:34:04;4.00;1.00
2409;DHT22;8463;48.094;7.970;2024-01-30T03:36:30;4.00;1.00
2409;DHT22;8463;48.094;7.970;2024-01-30T03:38:58;4.00;1.00
2409;DHT22;8463;48.094;7.970;2024-01-30T03:41:24;4.00;1.00
2409;DHT22;8463;48.094;7.970;2024-01-30T03:43:50;4.00;1.00
2409;DHT22;8463;48.094;7.970;2024-01-30T03:46:16;4.10;1.00
2409;DHT22;8463;48.094;7.970;2024-01-30T03:48:42;4.00;1.00
2409;DHT22;8463;48.094;7.970;2024-01-30T03:51:08;4.00;1.00
2409;DHT22;8463;48.094;7.970;2024-01-30T03:53:35;3.90;1.00
2409;DHT22;8463;48.094;7.970;2024-01-30T03:56:00;4.00;1.00
2409;DHT22;8463;48.094;7.970;2024-01-30T03:58:26;4.00;1.00
2409;DHT22;8463;48.094;7.970;2024-01-30T04:00:52;4.00;1.00
2409;DHT22;8463;48.094;7.970;2024-01-30T04:03:17;4.00;1.00
2409;DHT22;8463;48.094;7.970;2024-01-30T04:05:43;4.00;1.00
2409;DHT22;8463;48.094;7.970;2024-01-30T04:08:09;4.00;1.00
2409;DHT22;8463;48.094;7.970;2024-01-30T04:10:35;4.00;1.00
2409;DHT22;8463;48.094;7.970;2024-01-30T04:13:01;4.00;1.00
2409;DHT22;8463;48.094;7.970;2024-01-30T04:15:27;4.00;1.00
2409;DHT22;8463;48.094;7.970;2024-01-30T04:17:53;4.00;1.00
2409;DHT22;8463;48.094;7.970;2024-01-30T04:20:19;3.90;1.00
2409;DHT22;8463;48.094;7.970;2024-01-30T04:22:45;3.90;1.00
2409;DHT22;8463;48.094;7.970;2024-01-30T04:25:12;3.90;1.00
2409;DHT22;8463;48.094;7.970;2024-01-30T04:27:37;3.90;1.00
2409;DHT22;8463;48.094;7.970;2024-01-30T04:30:03;3.80;1.00
2409;DHT22;8463;48.094;7.970;2024-01-30T04:32:29;3.80;1.00
2409;DHT22;8463;48.094;7.970;2024-01-30T04:34:55;3.80;1.00
2409;DHT22;8463;48.094;7.970;2024-01-30T04:37:21;3.90;1.00
2409;DHT22;8463;48.094;7.970;2024-01-30T04:39:46;3.90;1.00
2409;DHT22;8463;48.094;7.970;2024-01-30T04:42:12;3.90;1.00
2409;DHT22;8463;48.094;7.970;2024-01-30T04:44:37;4.00;1.00
2409;DHT22;8463;48.094;7.970;2024-01-30T04:47:03;4.00;1.00
2409;DHT22;8463;48.094;7.970;2024-01-30T04:49:31;4.10;1.00
2409;DHT22;8463;48.094;7.970;2024-01-30T04:51:57;4.10;1.00
2409;DHT22;8463;48.094;7.970;2024-01-30T04:54:23;4.10;1.00
2409;DHT22;8463;48.094;7.970;2024-01-30T04:56:49;4.20;1.00
2409;DHT22;8463;48.094;7.970;2024-01-30T04:59:14;4.20;1.00
2409;DHT22;8463;48.094;7.970;2024-01-30T05:01:40;4.20;1.00
2409;DHT22;8463;48.094;7.970;2024-01-30T05:04:07;4.20;1.00
2409;DHT22;8463;48.094;7.970;2024-01-30T05:06:33;4.30;1.00
2409;DHT22;8463;48.094;7.970;2024-01-30T05:08:59;4.30;1.00
2409;DHT22;8463;48.094;7.970;2024-01-30T05:11:24;4.30;1.00
2409;DHT22;8463;48.094;7.970;2024-01-30T05:13:50;4.30;1.00
2409;DHT22;8463;48.094;7.970;2024-01-30T05:16:15;4.30;1.00
2409;DHT22;8463;48.094;7.970;2024-01-30T05:18:41;4.30;1.00
2409;DHT22;8463;48.094;7.970;2024-01-30T05:21:07;4.30;1.00
2409;DHT22;8463;48.094;7.970;2024-01-30T05:23:32;4.30;1.00
2409;DHT22;8463;48.094;7.970;2024-01-30T05:25:58;4.30;1.00
2409;DHT22;8463;48.094;7.970;2024-01-30T05:28:29;4.40;1.00
2409;DHT22;8463;48.094;7.970;2024-01-30T05:30:55;4.40;1.00
2409;DHT22;8463;48.094;7.970;2024-01-30T05:33:21;4.40;1.00
2409;DHT22;8463;48.094;7.970;2024-01-30T05:35:47;4.50;1.00
2409;DHT22;8463;48.094;7.970;2024-01-30T05:38:14;4.40;1.00
2409;DHT22;8463;48.094;7.970;2024-01-30T05:40:42;4.40;1.00
2409;DHT22;8463;48.094;7.970;2024-01-30T05:43:08;4.40;1.00
2409;DHT22;8463;48.094;7.970;2024-01-30T05:45:36;4.40;1.00
2409;DHT22;8463;48.094;7.970;2024-01-30T05:48:01;4.30;1.00
2409;DHT22;8463;48.094;7.970;2024-01-30T05:50:27;4.30;1.00
2409;DHT22;8463;48.094;7.970;2024-01-30T05:52:53;4.20;1.00
2409;DHT22;8463;48.094;7.970;2024-01-30T05:55:19;4.20;1.00
2409;DHT22;8463;48.094;7.970;2024-01-30T05:57:44;4.20;1.00
2409;DHT22;8463;48.094;7.970;2024-01-30T06:00:10;4.20;1.00
2409;DHT22;8463;48.094;7.970;2024-01-30T06:02:36;4.20;1.00
2409;DHT22;8463;48.094;7.970;2024-01-30T06:05:02;4.00;1.00
2409;DHT22;8463;48.094;7.970;2024-01-30T06:07:28;4.00;1.00
2409;DHT22;8463;48.094;7.970;2024-01-30T06:09:53;4.00;1.00
2409;DHT22;8463;48.094;7.970;2024-01-30T06:12:19;4.00;1.00
2409;DHT22;8463;48.094;7.970;2024-01-30T06:14:45;4.00;1.00
2409;DHT22;8463;48.094;7.970;2024-01-30T06:17:10;4.00;1.00
2409;DHT22;8463;48.094;7.970;2024-01-30T06:19:38;4.00;1.00
2409;DHT22;8463;48.094;7.970;2024-01-30T06:22:04;4.00;1.00
2409;DHT22;8463;48.094;7.970;2024-01-30T06:24:30;4.00;1.00
2409;DHT22;8463;48.094;7.970;2024-01-30T06:26:59;4.10;1.00
2409;DHT22;8463;48.094;7.970;2024-01-30T06:29:24;4.10;1.00
2409;DHT22;8463;48.094;7.970;2024-01-30T06:31:52;4.20;1.00
2409;DHT22;8463;48.094;7.970;2024-01-30T06:34:17;4.20;1.00
2409;DHT22;8463;48.094;7.970;2024-01-30T06:36:43;4.20;1.00
2409;DHT22;8463;48.094;7.970;2024-01-30T06:39:08;4.20;1.00
2409;DHT22;8463;48.094;7.970;2024-01-30T06:41:34;4.20;1.00
2409;DHT22;8463;48.094;7.970;2024-01-30T06:44:02;4.20;1.00
2409;DHT22;8463;48.094;7.970;2024-01-30T06:46:28;4.20;1.00
2409;DHT22;8463;48.094;7.970;2024-01-30T06:48:54;4.20;1.00
2409;DHT22;8463;48.094;7.970;2024-01-30T06:51:19;4.30;1.00
2409;DHT22;8463;48.094;7.970;2024-01-30T06:53:45;4.30;1.00
2409;DHT22;8463;48.094;7.970;2024-01-30T06:56:10;4.70;1.00
2409;DHT22;8463;48.094;7.970;2024-01-30T06:58:38;5.60;1.00
2409;DHT22;8463;48.094;7.970;2024-01-30T07:01:04;5.80;1.00
2409;DHT22;8463;48.094;7.970;2024-01-30T07:03:30;6.00;1.00
2409;DHT22;8463;48.094;7.970;2024-01-30T07:05:55;6.40;1.00
2409;DHT22;8463;48.094;7.970;2024-01-30T07:08:21;7.10;1.00
2409;DHT22;8463;48.094;7.970;2024-01-30T07:10:47;8.00;1.00
2409;DHT22;8463;48.094;7.970;2024-01-30T07:13:13;8.80;1.00
2409;DHT22;8463;48.094;7.970;2024-01-30T07:15:42;9.40;1.00
2409;DHT22;8463;48.094;7.970;2024-01-30T07:18:07;9.60;1.00
2409;DHT22;8463;48.094;7.970;2024-01-30T07:20:33;9.90;1.00
2409;DHT22;8463;48.094;7.970;2024-01-30T07:22:59;9.80;1.00
2409;DHT22;8463;48.094;7.970;2024-01-30T07:25:24;9.70;1.00
2409;DHT22;8463;48.094;7.970;2024-01-30T07:27:54;9.70;1.00
2409;DHT22;8463;48.094;7.970;2024-01-30T07:30:22;10.10;1.00
2409;DHT22;8463;48.094;7.970;2024-01-30T07:32:48;10.00;1.00
2409;DHT22;8463;48.094;7.970;2024-01-30T07:35:17;10.00;1.00
2409;DHT22;8463;48.094;7.970;2024-01-30T07:37:45;10.20;1.00
2409;DHT22;8463;48.094;7.970;2024-01-30T07:40:10;10.20;1.00
2409;DHT22;8463;48.094;7.970;2024-01-30T07:42:36;10.10;1.00
2409;DHT22;8463;48.094;7.970;2024-01-30T07:45:02;10.10;1.00
2409;DHT22;8463;48.094;7.970;2024-01-30T07:47:27;10.10;1.00
2409;DHT22;8463;48.094;7.970;2024-01-30T07:49:53;10.00;1.00
2409;DHT22;8463;48.094;7.970;2024-01-30T07:52:19;10.00;1.00
2409;DHT22;8463;48.094;7.970;2024-01-30T07:54:45;9.90;1.00
2409;DHT22;8463;48.094;7.970;2024-01-30T07:57:10;10.00;1.00
2409;DHT22;8463;48.094;7.970;2024-01-30T07:59:36;10.00;1.00
2409;DHT22;8463;48.094;7.970;2024-01-30T08:02:04;10.10;1.00
2409;DHT22;8463;48.094;7.970;2024-01-30T08:04:30;10.10;1.00
2409;DHT22;8463;48.094;7.970;2024-01-30T08:06:55;10.10;1.00
2409;DHT22;8463;48.094;7.970;2024-01-30T08:09:21;10.30;1.00
2409;DHT22;8463;48.094;7.970;2024-01-30T08:11:47;10.40;1.00
2409;DHT22;8463;48.094;7.970;2024-01-30T08:14:12;10.60;1.00
2409;DHT22;8463;48.094;7.970;2024-01-30T08:16:39;10.70;1.00
2409;DHT22;8463;48.094;7.970;2024-01-30T08:19:04;10.60;1.00
2409;DHT22;8463;48.094;7.970;2024-01-30T08:21:30;10.60;1.00
2409;DHT22;8463;48.094;7.970;2024-01-30T08:24:04;10.60;1.00
2409;DHT22;8463;48.094;7.970;2024-01-30T08:26:31;10.70;1.00
2409;DHT22;8463;48.094;7.970;2024-01-30T08:28:57;10.70;1.00
2409;DHT22;8463;48.094;7.970;2024-01-30T08:31:23;10.80;1.00
2409;DHT22;8463;48.094;7.970;2024-01-30T08:33:49;10.90;1.00
2409;DHT22;8463;48.094;7.970;2024-01-30T08:36:16;10.90;1.00
2409;DHT22;8463;48.094;7.970;2024-01-30T08:38:42;10.80;1.00
2409;DHT22;8463;48.094;7.970;2024-01-30T08:41:07;10.90;1.00
2409;DHT22;8463;48.094;7.970;2024-01-30T08:43:33;11.00;1.00
2409;DHT22;8463;48.094;7.970;2024-01-30T08:46:02;11.20;1.00
2409;DHT22;8463;48.094;7.970;2024-01-30T08:48:28;11.10;1.00
2409;DHT22;8463;48.094;7.970;2024-01-30T08:50:54;11.10;1.00
2409;DHT22;8463;48.094;7.970;2024-01-30T08:53:20;11.10;1.00
2409;DHT22;8463;48.094;7.970;2024-01-30T08:55:45;11.10;1.00
2409;DHT22;8463;48.094;7.970;2024-01-30T08:58:11;11.10;1.00
2409;DHT22;8463;48.094;7.970;2024-01-30T09:00:37;11.20;1.00
2409;DHT22;8463;48.094;7.970;2024-01-30T09:03:05;11.40;1.00
2409;DHT22;8463;48.094;7.970;2024-01-30T09:05:31;11.50;1.00
2409;DHT22;8463;48.094;7.970;2024-01-30T09:07:57;11.40;1.00
2409;DHT22;8463;48.094;7.970;2024-01-30T09:10:22;11.50;1.00
2409;DHT22;8463;48.094;7.970;2024-01-30T09:12:48;11.50;1.00
2409;DHT22;8463;48.094;7.970;2024-01-30T09:15:14;11.50;1.00
2409;DHT22;8463;48.094;7.970;2024-01-30T09:17:42;11.50;1.00
2409;DHT22;8463;48.094;7.970;2024-01-30T09:20:08;11.60;1.00
2409;DHT22;8463;48.094;7.970;2024-01-30T09:22:34;11.60;1.00
2409;DHT22;8463;48.094;7.970;2024-01-30T09:25:00;11.50;1.00
2409;DHT22;8463;48.094;7.970;2024-01-30T09:27:26;11.50;1.00
2409;DHT22;8463;48.094;7.970;2024-01-30T09:29:51;11.30;1.00
2409;DHT22;8463;48.094;7.970;2024-01-30T09:32:17;11.30;1.00
2409;DHT22;8463;48.094;7.970;2024-01-30T09:34:43;11.30;1.00
2409;DHT22;8463;48.094;7.970;2024-01-30T09:38:26;11.40;1.00
2409;DHT22;8463;48.094;7.970;2024-01-30T09:40:54;11.30;1.00
2409;DHT22;8463;48.094;7.970;2024-01-30T09:43:23;11.30;1.00
2409;DHT22;8463;48.094;7.970;2024-01-30T09:45:50;11.30;1.00
2409;DHT22;8463;48.094;7.970;2024-01-30T09:48:16;11.30;1.00
2409;DHT22;8463;48.094;7.970;2024-01-30T09:50:42;11.30;1.00
2409;DHT22;8463;48.094;7.970;2024-01-30T09:53:08;11.20;1.00
2409;DHT22;8463;48.094;7.970;2024-01-30T09:55:36;11.20;1.00
2409;DHT22;8463;48.094;7.970;2024-01-30T09:58:02;11.20;1.00
2409;DHT22;8463;48.094;7.970;2024-01-30T10:00:27;11.20;1.00
2409;DHT22;8463;48.094;7.970;2024-01-30T10:02:53;11.20;1.00
2409;DHT22;8463;48.094;7.970;2024-01-30T10:05:19;11.20;1.00
2409;DHT22;8463;48.094;7.970;2024-01-30T10:07:55;11.20;1.00
2409;DHT22;8463;48.094;7.970;2024-01-30T10:10:22;11.20;1.00
2409;DHT22;8463;48.094;7.970;2024-01-30T10:12:49;11.20;1.00
2409;DHT22;8463;48.094;7.970;2024-01-30T10:15:14;11.20;1.00
2409;DHT22;8463;48.094;7.970;2024-01-30T10:17:40;11.20;1.00
2409;DHT22;8463;48.094;7.970;2024-01-30T10:20:06;11.20;1.00
2409;DHT22;8463;48.094;7.970;2024-01-30T10:22:33;11.20;1.00
2409;DHT22;8463;48.094;7.970;2024-01-30T10:25:00;11.20;1.00
2409;DHT22;8463;48.094;7.970;2024-01-30T10:27:26;11.20;1.00
2409;DHT22;8463;48.094;7.970;2024-01-30T10:29:52;11.30;1.00
2409;DHT22;8463;48.094;7.970;2024-01-30T10:32:20;11.30;1.00
2409;DHT22;8463;48.094;7.970;2024-01-30T10:34:48;11.30;1.00
2409;DHT22;8463;48.094;7.970;2024-01-30T10:37:15;11.30;1.00
2409;DHT22;8463;48.094;7.970;2024-01-30T10:39:43;11.40;1.00
2409;DHT22;8463;48.094;7.970;2024-01-30T10:42:29;11.50;1.00
2409;DHT22;8463;48.094;7.970;2024-01-30T10:45:06;11.60;1.00
2409;DHT22;8463;48.094;7.970;2024-01-30T10:47:36;11.70;1.00
2409;DHT22;8463;48.094;7.970;2024-01-30T10:50:02;11.70;1.00
2409;DHT22;8463;48.094;7.970;2024-01-30T10:52:29;11.80;1.00
2409;DHT22;8463;48.094;7.970;2024-01-30T10:54:55;11.90;1.00
2409;DHT22;8463;48.094;7.970;2024-01-30T10:57:25;12.00;1.00
2409;DHT22;8463;48.094;7.970;2024-01-30T10:59:53;12.00;1.00
2409;DHT22;8463;48.094;7.970;2024-01-30T11:02:20;12.10;1.00
2409;DHT22;8463;48.094;7.970;2024-01-30T11:04:47;12.10;1.00
2409;DHT22;8463;48.094;7.970;2024-01-30T11:07:17;12.10;1.00
2409;DHT22;8463;48.094;7.970;2024-01-30T11:09:54;12.10;1.00
2409;DHT22;8463;48.094;7.970;2024-01-30T11:12:29;12.20;1.00
2409;DHT22;8463;48.094;7.970;2024-01-30T11:20:35;12.30;1.00
2409;DHT22;8463;48.094;7.970;2024-01-30T11:23:11;12.30;1.00
2409;DHT22;8463;48.094;7.970;2024-01-30T11:25:37;12.30;1.00
2409;DHT22;8463;48.094;7.970;2024-01-30T11:28:03;12.30;1.00
2409;DHT22;8463;48.094;7.970;2024-01-30T11:30:31;12.40;1.00
2409;DHT22;8463;48.094;7.970;2024-01-30T11:33:08;12.40;1.00
2409;DHT22;8463;48.094;7.970;2024-01-30T11:38:02;12.40;1.00
2409;DHT22;8463;48.094;7.970;2024-01-30T11:40:28;12.40;1.00
2409;DHT22;8463;48.094;7.970;2024-01-30T11:42:55;12.40;1.00
2409;DHT22;8463;48.094;7.970;2024-01-30T11:45:21;12.50;1.00
2409;DHT22;8463;48.094;7.970;2024-01-30T11:47:47;12.50;1.00
2409;DHT22;8463;48.094;7.970;2024-01-30T11:50:13;12.60;1.00
2409;DHT22;8463;48.094;7.970;2024-01-30T11:52:39;12.70;1.00
2409;DHT22;8463;48.094;7.970;2024-01-30T11:55:06;12.70;1.00
2409;DHT22;8463;48.094;7.970;2024-01-30T11:57:31;12.70;1.00
2409;DHT22;8463;48.094;7.970;2024-01-30T11:59:57;12.70;1.00
2409;DHT22;8463;48.094;7.970;2024-01-30T12:02:23;12.80;1.00
2409;DHT22;8463;48.094;7.970;2024-01-30T12:04:48;12.80;1.00
2409;DHT22;8463;48.094;7.970;2024-01-30T12:07:14;12.80;1.00
2409;DHT22;8463;48.094;7.970;2024-01-30T12:09:42;12.90;1.00
2409;DHT22;8463;48.094;7.970;2024-01-30T12:12:08;13.00;1.00
2409;DHT22;8463;48.094;7.970;2024-01-30T12:14:39;13.00;1.00
2409;DHT22;8463;48.094;7.970;2024-01-30T12:17:05;13.10;1.00
2409;DHT22;8463;48.094;7.970;2024-01-30T12:19:34;13.10;1.00
2409;DHT22;8463;48.094;7.970;2024-01-30T12:21:59;13.10;1.00
2409;DHT22;8463;48.094;7.970;2024-01-30T12:24:28;13.20;1.00
2409;DHT22;8463;48.094;7.970;2024-01-30T12:26:58;13.30;1.00
2409;DHT22;8463;48.094;7.970;2024-01-30T12:29:24;13.30;1.00
2409;DHT22;8463;48.094;7.970;2024-01-30T12:31:53;13.20;1.00
2409;DHT22;8463;48.094;7.970;2024-01-30T12:34:19;13.20;1.00
2409;DHT22;8463;48.094;7.970;2024-01-30T12:36:47;13.20;1.00
2409;DHT22;8463;48.094;7.970;2024-01-30T12:39:14;13.10;1.00
2409;DHT22;8463;48.094;7.970;2024-01-30T12:41:40;13.10;1.00
2409;DHT22;8463;48.094;7.970;2024-01-30T12:44:06;13.00;1.00
2409;DHT22;8463;48.094;7.970;2024-01-30T12:46:34;12.90;1.00
2409;DHT22;8463;48.094;7.970;2024-01-30T12:49:00;12.80;1.00
2409;DHT22;8463;48.094;7.970;2024-01-30T12:51:26;12.80;1.00
2409;DHT22;8463;48.094;7.970;2024-01-30T12:53:51;12.70;1.00
2409;DHT22;8463;48.094;7.970;2024-01-30T12:56:17;12.70;1.00
2409;DHT22;8463;48.094;7.970;2024-01-30T12:58:45;12.70;1.00
2409;DHT22;8463;48.094;7.970;2024-01-30T13:01:10;12.60;1.00
2409;DHT22;8463;48.094;7.970;2024-01-30T13:03:36;12.60;1.00
2409;DHT22;8463;48.094;7.970;2024-01-30T13:06:02;12.60;1.00
2409;DHT22;8463;48.094;7.970;2024-01-30T13:08:28;12.60;1.00
2409;DHT22;8463;48.094;7.970;2024-01-30T13:10:53;12.60;1.00
2409;DHT22;8463;48.094;7.970;2024-01-30T13:13:19;12.60;1.00
2409;DHT22;8463;48.094;7.970;2024-01-30T13:15:48;12.60;1.00
2409;DHT22;8463;48.094;7.970;2024-01-30T13:18:13;12.60;1.00
2409;DHT22;8463;48.094;7.970;2024-01-30T13:20:39;12.70;1.00
2409;DHT22;8463;48.094;7.970;2024-01-30T13:23:05;12.80;1.00
2409;DHT22;8463;48.094;7.970;2024-01-30T13:25:30;12.80;1.00
2409;DHT22;8463;48.094;7.970;2024-01-30T13:27:56;12.80;1.00
2409;DHT22;8463;48.094;7.970;2024-01-30T13:30:24;12.90;1.00
2409;DHT22;8463;48.094;7.970;2024-01-30T13:32:52;12.90;1.00
2409;DHT22;8463;48.094;7.970;2024-01-30T13:35:18;12.90;1.00
2409;DHT22;8463;48.094;7.970;2024-01-30T13:37:43;12.80;1.00
2409;DHT22;8463;48.094;7.970;2024-01-30T13:40:09;12.80;1.00
2409;DHT22;8463;48.094;7.970;2024-01-30T13:42:35;12.80;1.00
2409;DHT22;8463;48.094;7.970;2024-01-30T13:45:03;12.80;1.00
2409;DHT22;8463;48.094;7.970;2024-01-30T13:47:29;12.80;1.00
2409;DHT22;8463;48.094;7.970;2024-01-30T13:49:55;12.70;1.00
2409;DHT22;8463;48.094;7.970;2024-01-30T13:52:20;12.70;1.00
2409;DHT22;8463;48.094;7.970;2024-01-30T13:54:46;12.70;1.00
2409;DHT22;8463;48.094;7.970;2024-01-30T13:57:14;12.70;1.00
2409;DHT22;8463;48.094;7.970;2024-01-30T13:59:40;12.70;1.00
2409;DHT22;8463;48.094;7.970;2024-01-30T14:02:05;12.70;1.00
2409;DHT22;8463;48.094;7.970;2024-01-30T14:04:33;12.70;1.00
2409;DHT22;8463;48.094;7.970;2024-01-30T14:06:59;12.60;1.00
2409;DHT22;8463;48.094;7.970;2024-01-30T14:09:25;12.60;1.00
2409;DHT22;8463;48.094;7.970;2024-01-30T14:11:50;12.60;1.00
2409;DHT22;8463;48.094;7.970;2024-01-30T14:14:16;12.60;1.00
2409;DHT22;8463;48.094;7.970;2024-01-30T14:16:44;12.60;1.00
2409;DHT22;8463;48.094;7.970;2024-01-30T14:19:10;12.60;1.00
2409;DHT22;8463;48.094;7.970;2024-01-30T14:21:36;12.60;1.00
2409;DHT22;8463;48.094;7.970;2024-01-30T14:24:02;12.60;1.00
2409;DHT22;8463;48.094;7.970;2024-01-30T14:26:28;12.50;1.00
2409;DHT22;8463;48.094;7.970;2024-01-30T14:28:54;12.50;1.00
2409;DHT22;8463;48.094;7.970;2024-01-30T14:31:20;12.50;1.00
2409;DHT22;8463;48.094;7.970;2024-01-30T14:33:47;12.50;1.00
2409;DHT22;8463;48.094;7.970;2024-01-30T14:36:14;12.40;1.00
2409;DHT22;8463;48.094;7.970;2024-01-30T14:38:40;12.50;1.00
2409;DHT22;8463;48.094;7.970;2024-01-30T14:41:08;12.30;1.00
2409;DHT22;8463;48.094;7.970;2024-01-30T14:43:36;12.40;1.00
2409;DHT22;8463;48.094;7.970;2024-01-30T14:46:03;12.30;1.00
2409;DHT22;8463;48.094;7.970;2024-01-30T14:48:31;12.30;1.00
2409;DHT22;8463;48.094;7.970;2024-01-30T14:50:57;12.30;1.00
2409;DHT22;8463;48.094;7.970;2024-01-30T14:53:25;12.20;1.00
2409;DHT22;8463;48.094;7.970;2024-01-30T14:55:51;12.20;1.00
2409;DHT22;8463;48.094;7.970;2024-01-30T14:58:19;12.20;1.00
2409;DHT22;8463;48.094;7.970;2024-01-30T15:00:45;12.10;1.00
2409;DHT22;8463;48.094;7.970;2024-01-30T15:03:11;12.10;1.00
2409;DHT22;8463;48.094;7.970;2024-01-30T15:05:36;12.10;1.00
2409;DHT22;8463;48.094;7.970;2024-01-30T15:08:02;12.00;1.00
2409;DHT22;8463;48.094;7.970;2024-01-30T15:10:28;12.00;1.00
2409;DHT22;8463;48.094;7.970;2024-01-30T15:12:53;12.00;1.00
2409;DHT22;8463;48.094;7.970;2024-01-30T15:15:19;11.90;1.00
2409;DHT22;8463;48.094;7.970;2024-01-30T15:17:44;11.90;1.00
2409;DHT22;8463;48.094;7.970;2024-01-30T15:20:10;11.90;1.00
2409;DHT22;8463;48.094;7.970;2024-01-30T15:22:36;11.80;1.00
2409;DHT22;8463;48.094;7.970;2024-01-30T15:25:02;11.80;1.00
2409;DHT22;8463;48.094;7.970;2024-01-30T15:27:28;11.70;1.00
2409;DHT22;8463;48.094;7.970;2024-01-30T15:29:54;11.70;1.00
2409;DHT22;8463;48.094;7.970;2024-01-30T15:32:20;11.70;1.00
2409;DHT22;8463;48.094;7.970;2024-01-30T15:34:45;11.70;1.00
2409;DHT22;8463;48.094;7.970;2024-01-30T15:37:11;11.70;1.00
2409;DHT22;8463;48.094;7.970;2024-01-30T15:39:37;11.60;1.00
2409;DHT22;8463;48.094;7.970;2024-01-30T15:42:02;11.60;1.00
2409;DHT22;8463;48.094;7.970;2024-01-30T15:44:28;11.60;1.00
2409;DHT22;8463;48.094;7.970;2024-01-30T15:46:56;11.50;1.00
2409;DHT22;8463;48.094;7.970;2024-01-30T15:49:21;11.50;1.00
2409;DHT22;8463;48.094;7.970;2024-01-30T15:51:47;11.50;1.00
2409;DHT22;8463;48.094;7.970;2024-01-30T15:54:13;11.50;1.00
2409;DHT22;8463;48.094;7.970;2024-01-30T15:56:38;11.40;1.00
2409;DHT22;8463;48.094;7.970;2024-01-30T15:59:05;11.40;1.00
2409;DHT22;8463;48.094;7.970;2024-01-30T16:01:30;11.40;1.00
2409;DHT22;8463;48.094;7.970;2024-01-30T16:03:56;11.30;1.00
2409;DHT22;8463;48.094;7.970;2024-01-30T16:06:22;11.20;1.00
2409;DHT22;8463;48.094;7.970;2024-01-30T16:08:47;11.20;1.00
2409;DHT22;8463;48.094;7.970;2024-01-30T16:11:16;11.10;1.00
2409;DHT22;8463;48.094;7.970;2024-01-30T16:13:42;11.20;1.00
2409;DHT22;8463;48.094;7.970;2024-01-30T16:16:10;11.20;1.00
2409;DHT22;8463;48.094;7.970;2024-01-30T16:18:36;11.10;1.00
2409;DHT22;8463;48.094;7.970;2024-01-30T16:21:02;11.10;1.00
2409;DHT22;8463;48.094;7.970;2024-01-30T16:23:28;11.10;1.00
2409;DHT22;8463;48.094;7.970;2024-01-30T16:25:54;11.00;1.00
2409;DHT22;8463;48.094;7.970;2024-01-30T16:28:23;10.90;1.00